sensor_id;sensor_type;location;lat;lon;timestamp;P1;durP1;ratioP1;P2;durP2;ratioP2
45490;SDS011;31237;45.586;13.782;2023-06-22T00:02:16;11.32;;;7.57;;
45490;SDS011;31237;45.586;13.782;2023-06-22T00:04:43;10.38;;;7.53;;
45490;SDS011;31237;45.586;13.782;2023-06-22T00:07:09;12.60;;;8.18;;
45490;SDS011;31237;45.586;13.782;2023-06-22T00:09:35;15.77;;;8.93;;
45490;SDS011;31237;45.586;13.782;2023-06-22T00:12:01;12.10;;;8.13;;
45490;SDS011;31237;45.586;13.782;2023-06-22T00:14:27;12.18;;;8.23;;
45490;SDS011;31237;45.586;13.782;2023-06-22T00:16:53;11.18;;;8.35;;
45490;SDS011;31237;45.586;13.782;2023-06-22T00:19:20;11.02;;;8.48;;
45490;SDS011;31237;45.586;13.782;2023-06-22T00:21:47;11.00;;;8.32;;
45490;SDS011;31237;45.586;13.782;2023-06-22T00:24:18;12.07;;;8.80;;
45490;SDS011;31237;45.586;13.782;2023-06-22T00:26:44;12.20;;;8.20;;
45490;SDS011;31237;45.586;13.782;2023-06-22T00:29:10;10.60;;;8.75;;
45490;SDS011;31237;45.586;13.782;2023-06-22T00:31:36;13.43;;;9.23;;
45490;SDS011;31237;45.586;13.782;2023-06-22T00:34:02;11.18;;;8.07;;
45490;SDS011;31237;45.586;13.782;2023-06-22T00:36:27;11.38;;;8.73;;
45490;SDS011;31237;45.586;13.782;2023-06-22T00:38:53;10.48;;;8.63;;
45490;SDS011;31237;45.586;13.782;2023-06-22T00:41:19;11.45;;;8.15;;
45490;SDS011;31237;45.586;13.782;2023-06-22T00:43:44;10.75;;;8.63;;
45490;SDS011;31237;45.586;13.782;2023-06-22T00:46:10;9.40;;;8.15;;
45490;SDS011;31237;45.586;13.782;2023-06-22T00:48:37;10.32;;;9.18;;
45490;SDS011;31237;45.586;13.782;2023-06-22T00:51:05;12.10;;;8.88;;
45490;SDS011;31237;45.586;13.782;2023-06-22T00:53:30;10.75;;;8.60;;
45490;SDS011;31237;45.586;13.782;2023-06-22T00:55:59;10.98;;;9.27;;
45490;SDS011;31237;45.586;13.782;2023-06-22T00:58:25;11.73;;;8.63;;
45490;SDS011;31237;45.586;13.782;2023-06-22T01:00:51;11.43;;;8.52;;
45490;SDS011;31237;45.586;13.782;2023-06-22T01:03:17;11.93;;;9.80;;
45490;SDS011;31237;45.586;13.782;2023-06-22T01:05:43;11.57;;;9.05;;
45490;SDS011;31237;45.586;13.782;2023-06-22T01:11:18;10.80;;;9.30;;
45490;SDS011;31237;45.586;13.782;2023-06-22T01:16:35;12.43;;;9.90;;
45490;SDS011;31237;45.586;13.782;2023-06-22T01:21:56;11.05;;;9.20;;
45490;SDS011;31237;45.586;13.782;2023-06-22T01:24:24;12.43;;;9.40;;
45490;SDS011;31237;45.586;13.782;2023-06-22T01:29:33;11.05;;;8.95;;
45490;SDS011;31237;45.586;13.782;2023-06-22T01:32:00;11.35;;;9.13;;
45490;SDS011;31237;45.586;13.782;2023-06-22T01:34:29;12.57;;;9.30;;
45490;SDS011;31237;45.586;13.782;2023-06-22T01:36:56;12.20;;;10.15;;
45490;SDS011;31237;45.586;13.782;2023-06-22T01:39:24;9.50;;;8.48;;
45490;SDS011;31237;45.586;13.782;2023-06-22T01:41:51;11.43;;;8.40;;
45490;SDS011;31237;45.586;13.782;2023-06-22T01:44:18;11.85;;;8.30;;
45490;SDS011;31237;45.586;13.782;2023-06-22T01:46:44;11.23;;;8.90;;
45490;SDS011;31237;45.586;13.782;2023-06-22T01:49:11;11.32;;;9.25;;
45490;SDS011;31237;45.586;13.782;2023-06-22T01:51:37;12.85;;;9.27;;
45490;SDS011;31237;45.586;13.782;2023-06-22T01:54:03;11.70;;;9.02;;
45490;SDS011;31237;45.586;13.782;2023-06-22T01:56:30;10.52;;;8.32;;
45490;SDS011;31237;45.586;13.782;2023-06-22T01:59:01;12.90;;;8.82;;
45490;SDS011;31237;45.586;13.782;2023-06-22T02:01:31;10.48;;;8.65;;
45490;SDS011;31237;45.586;13.782;2023-06-22T02:04:20;11.43;;;8.95;;
45490;SDS011;31237;45.586;13.782;2023-06-22T02:06:50;12.32;;;9.48;;
45490;SDS011;31237;45.586;13.782;2023-06-22T02:09:20;11.77;;;9.10;;
45490;SDS011;31237;45.586;13.782;2023-06-22T02:11:47;12.80;;;9.35;;
45490;SDS011;31237;45.586;13.782;2023-06-22T02:14:16;12.95;;;10.15;;
45490;SDS011;31237;45.586;13.782;2023-06-22T02:16:43;11.65;;;9.88;;
45490;SDS011;31237;45.586;13.782;2023-06-22T02:19:09;12.25;;;9.65;;
45490;SDS011;31237;45.586;13.782;2023-06-22T02:21:34;12.73;;;9.13;;
45490;SDS011;31237;45.586;13.782;2023-06-22T02:24:00;11.43;;;9.18;;
45490;SDS011;31237;45.586;13.782;2023-06-22T02:26:26;11.65;;;9.85;;
45490;SDS011;31237;45.586;13.782;2023-06-22T02:28:52;12.35;;;9.10;;
45490;SDS011;31237;45.586;13.782;2023-06-22T02:31:18;10.05;;;8.07;;
45490;SDS011;31237;45.586;13.782;2023-06-22T02:33:45;10.00;;;8.30;;
45490;SDS011;31237;45.586;13.782;2023-06-22T02:36:11;11.45;;;8.55;;
45490;SDS011;31237;45.586;13.782;2023-06-22T02:38:38;11.43;;;8.45;;
45490;SDS011;31237;45.586;13.782;2023-06-22T02:41:10;12.13;;;9.23;;
45490;SDS011;31237;45.586;13.782;2023-06-22T02:43:38;10.40;;;8.70;;
45490;SDS011;31237;45.586;13.782;2023-06-22T02:46:03;11.27;;;8.40;;
45490;SDS011;31237;45.586;13.782;2023-06-22T02:48:29;10.00;;;8.15;;
45490;SDS011;31237;45.586;13.782;2023-06-22T02:50:55;12.75;;;9.13;;
45490;SDS011;31237;45.586;13.782;2023-06-22T02:53:20;13.02;;;9.30;;
45490;SDS011;31237;45.586;13.782;2023-06-22T02:55:46;11.43;;;9.05;;
45490;SDS011;31237;45.586;13.782;2023-06-22T02:58:12;10.75;;;9.02;;
45490;SDS011;31237;45.586;13.782;2023-06-22T03:00:37;10.45;;;9.27;;
45490;SDS011;31237;45.586;13.782;2023-06-22T03:03:04;10.05;;;8.73;;
45490;SDS011;31237;45.586;13.782;2023-06-22T03:05:30;14.93;;;9.20;;
45490;SDS011;31237;45.586;13.782;2023-06-22T03:07:57;10.70;;;8.30;;
45490;SDS011;31237;45.586;13.782;2023-06-22T03:10:23;12.23;;;9.15;;
45490;SDS011;31237;45.586;13.782;2023-06-22T03:12:49;13.00;;;9.80;;
45490;SDS011;31237;45.586;13.782;2023-06-22T03:15:15;12.50;;;9.63;;
45490;SDS011;31237;45.586;13.782;2023-06-22T03:17:42;11.52;;;9.25;;
45490;SDS011;31237;45.586;13.782;2023-06-22T03:20:09;11.52;;;9.70;;
45490;SDS011;31237;45.586;13.782;2023-06-22T03:22:40;10.70;;;8.68;;
45490;SDS011;31237;45.586;13.782;2023-06-22T03:25:07;11.30;;;8.43;;
45490;SDS011;31237;45.586;13.782;2023-06-22T03:27:36;13.93;;;8.38;;
45490;SDS011;31237;45.586;13.782;2023-06-22T03:30:02;10.55;;;8.90;;
45490;SDS011;31237;45.586;13.782;2023-06-22T03:32:28;9.82;;;8.60;;
45490;SDS011;31237;45.586;13.782;2023-06-22T03:34:54;13.95;;;8.77;;
45490;SDS011;31237;45.586;13.782;2023-06-22T03:37:23;10.25;;;8.23;;
45490;SDS011;31237;45.586;13.782;2023-06-22T03:39:52;10.90;;;8.55;;
45490;SDS011;31237;45.586;13.782;2023-06-22T03:42:18;11.15;;;7.93;;
45490;SDS011;31237;45.586;13.782;2023-06-22T03:44:44;9.95;;;8.63;;
45490;SDS011;31237;45.586;13.782;2023-06-22T03:47:10;10.18;;;8.20;;
45490;SDS011;31237;45.586;13.782;2023-06-22T03:49:35;14.82;;;7.88;;
45490;SDS011;31237;45.586;13.782;2023-06-22T03:52:02;10.27;;;7.50;;
45490;SDS011;31237;45.586;13.782;2023-06-22T03:54:28;12.32;;;8.95;;
45490;SDS011;31237;45.586;13.782;2023-06-22T03:56:55;12.32;;;7.70;;
45490;SDS011;31237;45.586;13.782;2023-06-22T03:59:22;10.25;;;8.05;;
45490;SDS011;31237;45.586;13.782;2023-06-22T04:01:48;12.90;;;8.65;;
45490;SDS011;31237;45.586;13.782;2023-06-22T04:04:13;11.27;;;8.05;;
45490;SDS011;31237;45.586;13.782;2023-06-22T04:06:39;11.32;;;8.27;;
45490;SDS011;31237;45.586;13.782;2023-06-22T04:09:05;11.15;;;7.90;;
45490;SDS011;31237;45.586;13.782;2023-06-22T04:11:31;10.05;;;8.35;;
45490;SDS011;31237;45.586;13.782;2023-06-22T04:13:57;10.90;;;8.98;;
45490;SDS011;31237;45.586;13.782;2023-06-22T04:16:22;11.90;;;8.98;;
45490;SDS011;31237;45.586;13.782;2023-06-22T04:18:48;10.95;;;8.15;;
45490;SDS011;31237;45.586;13.782;2023-06-22T04:21:14;12.00;;;8.32;;
45490;SDS011;31237;45.586;13.782;2023-06-22T04:23:39;13.95;;;10.25;;
45490;SDS011;31237;45.586;13.782;2023-06-22T04:26:05;11.73;;;8.63;;
45490;SDS011;31237;45.586;13.782;2023-06-22T04:28:31;14.13;;;8.30;;
45490;SDS011;31237;45.586;13.782;2023-06-22T04:31:02;14.65;;;8.40;;
45490;SDS011;31237;45.586;13.782;2023-06-22T04:33:29;10.85;;;8.25;;
45490;SDS011;31237;45.586;13.782;2023-06-22T04:35:54;13.13;;;9.27;;
45490;SDS011;31237;45.586;13.782;2023-06-22T04:38:26;10.43;;;9.35;;
45490;SDS011;31237;45.586;13.782;2023-06-22T04:40:52;10.75;;;8.98;;
45490;SDS011;31237;45.586;13.782;2023-06-22T04:43:19;13.65;;;9.85;;
45490;SDS011;31237;45.586;13.782;2023-06-22T04:45:45;10.70;;;9.07;;
45490;SDS011;31237;45.586;13.782;2023-06-22T04:48:10;11.35;;;9.23;;
45490;SDS011;31237;45.586;13.782;2023-06-22T04:50:41;12.30;;;9.73;;
45490;SDS011;31237;45.586;13.782;2023-06-22T04:53:06;11.63;;;8.73;;
45490;SDS011;31237;45.586;13.782;2023-06-22T04:55:34;11.50;;;9.52;;
45490;SDS011;31237;45.586;13.782;2023-06-22T04:58:03;13.27;;;10.07;;
45490;SDS011;31237;45.586;13.782;2023-06-22T05:00:30;11.20;;;9.52;;
45490;SDS011;31237;45.586;13.782;2023-06-22T05:02:56;12.60;;;9.13;;
45490;SDS011;31237;45.586;13.782;2023-06-22T05:05:25;9.43;;;7.88;;
45490;SDS011;31237;45.586;13.782;2023-06-22T05:07:51;12.48;;;9.05;;
45490;SDS011;31237;45.586;13.782;2023-06-22T05:10:24;11.45;;;8.82;;
45490;SDS011;31237;45.586;13.782;2023-06-22T05:12:51;13.13;;;9.45;;
45490;SDS011;31237;45.586;13.782;2023-06-22T05:15:16;12.55;;;9.40;;
45490;SDS011;31237;45.586;13.782;2023-06-22T05:17:44;11.98;;;9.73;;
45490;SDS011;31237;45.586;13.782;2023-06-22T05:20:10;11.52;;;9.77;;
45490;SDS011;31237;45.586;13.782;2023-06-22T05:22:37;14.38;;;9.75;;
45490;SDS011;31237;45.586;13.782;2023-06-22T05:25:08;12.43;;;9.93;;
45490;SDS011;31237;45.586;13.782;2023-06-22T05:27:35;12.60;;;9.23;;
45490;SDS011;31237;45.586;13.782;2023-06-22T05:30:09;12.70;;;9.15;;
45490;SDS011;31237;45.586;13.782;2023-06-22T05:32:36;13.63;;;10.68;;
45490;SDS011;31237;45.586;13.782;2023-06-22T05:35:02;11.95;;;9.63;;
45490;SDS011;31237;45.586;13.782;2023-06-22T05:37:28;11.45;;;10.23;;
45490;SDS011;31237;45.586;13.782;2023-06-22T05:39:54;12.50;;;9.25;;
45490;SDS011;31237;45.586;13.782;2023-06-22T05:42:21;10.15;;;7.93;;
45490;SDS011;31237;45.586;13.782;2023-06-22T05:44:46;11.88;;;9.27;;
45490;SDS011;31237;45.586;13.782;2023-06-22T05:47:12;11.57;;;8.82;;
45490;SDS011;31237;45.586;13.782;2023-06-22T05:49:38;11.70;;;8.88;;
45490;SDS011;31237;45.586;13.782;2023-06-22T05:52:04;10.93;;;8.68;;
45490;SDS011;31237;45.586;13.782;2023-06-22T05:54:30;11.40;;;8.75;;
45490;SDS011;31237;45.586;13.782;2023-06-22T05:56:56;11.57;;;9.25;;
45490;SDS011;31237;45.586;13.782;2023-06-22T05:59:21;10.63;;;8.43;;
45490;SDS011;31237;45.586;13.782;2023-06-22T06:01:47;11.80;;;9.15;;
45490;SDS011;31237;45.586;13.782;2023-06-22T06:04:18;11.75;;;9.15;;
45490;SDS011;31237;45.586;13.782;2023-06-22T06:06:44;14.20;;;9.43;;
45490;SDS011;31237;45.586;13.782;2023-06-22T06:09:12;14.00;;;8.70;;
45490;SDS011;31237;45.586;13.782;2023-06-22T06:11:38;11.95;;;8.88;;
45490;SDS011;31237;45.586;13.782;2023-06-22T06:14:04;11.63;;;8.50;;
45490;SDS011;31237;45.586;13.782;2023-06-22T06:16:30;10.73;;;8.63;;
45490;SDS011;31237;45.586;13.782;2023-06-22T06:18:56;12.05;;;8.30;;
45490;SDS011;31237;45.586;13.782;2023-06-22T06:21:23;12.35;;;9.18;;
45490;SDS011;31237;45.586;13.782;2023-06-22T06:23:49;12.85;;;8.57;;
45490;SDS011;31237;45.586;13.782;2023-06-22T06:26:14;10.43;;;8.05;;
45490;SDS011;31237;45.586;13.782;2023-06-22T06:28:42;9.90;;;7.57;;
45490;SDS011;31237;45.586;13.782;2023-06-22T06:31:08;12.13;;;8.45;;
45490;SDS011;31237;45.586;13.782;2023-06-22T06:33:34;9.38;;;7.88;;
45490;SDS011;31237;45.586;13.782;2023-06-22T06:36:01;13.65;;;9.18;;
45490;SDS011;31237;45.586;13.782;2023-06-22T06:38:29;13.65;;;8.68;;
45490;SDS011;31237;45.586;13.782;2023-06-22T06:40:55;12.65;;;8.80;;
45490;SDS011;31237;45.586;13.782;2023-06-22T06:43:21;12.60;;;9.40;;
45490;SDS011;31237;45.586;13.782;2023-06-22T06:45:47;12.65;;;8.98;;
45490;SDS011;31237;45.586;13.782;2023-06-22T06:48:13;11.50;;;9.27;;
45490;SDS011;31237;45.586;13.782;2023-06-22T06:50:39;9.10;;;7.97;;
45490;SDS011;31237;45.586;13.782;2023-06-22T06:53:05;10.95;;;8.18;;
45490;SDS011;31237;45.586;13.782;2023-06-22T06:55:31;10.75;;;8.10;;
45490;SDS011;31237;45.586;13.782;2023-06-22T06:57:58;11.35;;;8.82;;
45490;SDS011;31237;45.586;13.782;2023-06-22T07:00:24;12.10;;;9.23;;
45490;SDS011;31237;45.586;13.782;2023-06-22T07:02:51;13.02;;;8.80;;
45490;SDS011;31237;45.586;13.782;2023-06-22T07:05:17;12.07;;;8.40;;
45490;SDS011;31237;45.586;13.782;2023-06-22T07:07:42;11.95;;;9.07;;
45490;SDS011;31237;45.586;13.782;2023-06-22T07:10:08;14.73;;;9.98;;
45490;SDS011;31237;45.586;13.782;2023-06-22T07:12:35;13.95;;;9.05;;
45490;SDS011;31237;45.586;13.782;2023-06-22T07:15:04;11.63;;;9.32;;
45490;SDS011;31237;45.586;13.782;2023-06-22T07:17:33;13.57;;;9.18;;
45490;SDS011;31237;45.586;13.782;2023-06-22T07:19:59;13.95;;;9.30;;
45490;SDS011;31237;45.586;13.782;2023-06-22T07:22:24;11.75;;;9.75;;
45490;SDS011;31237;45.586;13.782;2023-06-22T07:24:50;12.38;;;8.75;;
45490;SDS011;31237;45.586;13.782;2023-06-22T07:27:17;13.90;;;10.02;;
45490;SDS011;31237;45.586;13.782;2023-06-22T07:29:44;13.23;;;9.70;;
45490;SDS011;31237;45.586;13.782;2023-06-22T07:32:10;13.05;;;9.73;;
45490;SDS011;31237;45.586;13.782;2023-06-22T07:34:35;12.85;;;9.82;;
45490;SDS011;31237;45.586;13.782;2023-06-22T07:37:01;12.77;;;9.50;;
45490;SDS011;31237;45.586;13.782;2023-06-22T07:39:27;13.10;;;9.43;;
45490;SDS011;31237;45.586;13.782;2023-06-22T07:41:53;13.70;;;9.90;;
45490;SDS011;31237;45.586;13.782;2023-06-22T07:44:19;13.00;;;9.30;;
45490;SDS011;31237;45.586;13.782;2023-06-22T07:46:45;12.00;;;9.32;;
45490;SDS011;31237;45.586;13.782;2023-06-22T07:49:11;14.70;;;9.70;;
45490;SDS011;31237;45.586;13.782;2023-06-22T07:51:37;13.82;;;9.65;;
45490;SDS011;31237;45.586;13.782;2023-06-22T07:54:03;13.18;;;10.02;;
45490;SDS011;31237;45.586;13.782;2023-06-22T07:56:29;13.60;;;10.10;;
45490;SDS011;31237;45.586;13.782;2023-06-22T07:58:54;13.02;;;10.13;;
45490;SDS011;31237;45.586;13.782;2023-06-22T08:01:23;14.38;;;10.15;;
45490;SDS011;31237;45.586;13.782;2023-06-22T08:03:48;12.88;;;9.23;;
45490;SDS011;31237;45.586;13.782;2023-06-22T08:06:14;13.32;;;9.95;;
45490;SDS011;31237;45.586;13.782;2023-06-22T08:08:41;11.48;;;9.18;;
45490;SDS011;31237;45.586;13.782;2023-06-22T08:11:08;12.48;;;9.15;;
45490;SDS011;31237;45.586;13.782;2023-06-22T08:13:34;11.38;;;8.65;;
45490;SDS011;31237;45.586;13.782;2023-06-22T08:15:59;12.10;;;9.27;;
45490;SDS011;31237;45.586;13.782;2023-06-22T08:18:25;12.38;;;9.70;;
45490;SDS011;31237;45.586;13.782;2023-06-22T08:20:51;14.38;;;9.88;;
45490;SDS011;31237;45.586;13.782;2023-06-22T08:23:17;13.68;;;9.45;;
45490;SDS011;31237;45.586;13.782;2023-06-22T08:25:43;11.95;;;9.02;;
45490;SDS011;31237;45.586;13.782;2023-06-22T08:28:09;10.15;;;8.57;;
45490;SDS011;31237;45.586;13.782;2023-06-22T08:30:35;13.45;;;8.65;;
45490;SDS011;31237;45.586;13.782;2023-06-22T08:33:00;15.38;;;9.75;;
45490;SDS011;31237;45.586;13.782;2023-06-22T08:35:26;11.77;;;8.60;;
45490;SDS011;31237;45.586;13.782;2023-06-22T08:37:52;11.57;;;9.38;;
45490;SDS011;31237;45.586;13.782;2023-06-22T08:40:20;12.07;;;9.60;;
45490;SDS011;31237;45.586;13.782;2023-06-22T08:42:46;12.77;;;9.23;;
45490;SDS011;31237;45.586;13.782;2023-06-22T08:45:13;11.20;;;8.55;;
45490;SDS011;31237;45.586;13.782;2023-06-22T08:47:39;10.63;;;9.00;;
45490;SDS011;31237;45.586;13.782;2023-06-22T08:50:06;12.77;;;10.15;;
45490;SDS011;31237;45.586;13.782;2023-06-22T08:52:34;12.30;;;9.18;;
45490;SDS011;31237;45.586;13.782;2023-06-22T08:55:01;13.98;;;8.45;;
45490;SDS011;31237;45.586;13.782;2023-06-22T08:57:27;10.73;;;8.25;;
45490;SDS011;31237;45.586;13.782;2023-06-22T08:59:53;11.65;;;9.60;;
45490;SDS011;31237;45.586;13.782;2023-06-22T09:02:23;11.82;;;8.45;;
45490;SDS011;31237;45.586;13.782;2023-06-22T09:04:55;12.65;;;8.88;;
45490;SDS011;31237;45.586;13.782;2023-06-22T09:07:22;10.63;;;8.57;;
45490;SDS011;31237;45.586;13.782;2023-06-22T09:09:49;10.80;;;8.25;;
45490;SDS011;31237;45.586;13.782;2023-06-22T09:12:16;12.48;;;9.63;;
45490;SDS011;31237;45.586;13.782;2023-06-22T09:14:44;10.75;;;9.63;;
45490;SDS011;31237;45.586;13.782;2023-06-22T09:17:11;12.00;;;9.15;;
45490;SDS011;31237;45.586;13.782;2023-06-22T09:19:38;10.95;;;8.65;;
45490;SDS011;31237;45.586;13.782;2023-06-22T09:22:04;11.57;;;8.77;;
45490;SDS011;31237;45.586;13.782;2023-06-22T09:24:31;11.77;;;9.02;;
45490;SDS011;31237;45.586;13.782;2023-06-22T09:26:57;10.20;;;7.88;;
45490;SDS011;31237;45.586;13.782;2023-06-22T09:29:23;11.77;;;8.98;;
45490;SDS011;31237;45.586;13.782;2023-06-22T09:31:48;12.73;;;8.73;;
45490;SDS011;31237;45.586;13.782;2023-06-22T09:34:14;12.23;;;8.30;;
45490;SDS011;31237;45.586;13.782;2023-06-22T09:36:41;14.27;;;9.52;;
45490;SDS011;31237;45.586;13.782;2023-06-22T09:39:06;11.10;;;8.23;;
45490;SDS011;31237;45.586;13.782;2023-06-22T09:41:32;10.80;;;8.20;;
45490;SDS011;31237;45.586;13.782;2023-06-22T09:43:58;11.10;;;9.18;;
45490;SDS011;31237;45.586;13.782;2023-06-22T09:46:23;13.15;;;8.80;;
45490;SDS011;31237;45.586;13.782;2023-06-22T09:48:53;11.02;;;9.10;;
45490;SDS011;31237;45.586;13.782;2023-06-22T09:51:18;11.25;;;9.15;;
45490;SDS011;31237;45.586;13.782;2023-06-22T09:53:46;12.95;;;10.07;;
45490;SDS011;31237;45.586;13.782;2023-06-22T09:56:12;13.85;;;9.15;;
45490;SDS011;31237;45.586;13.782;2023-06-22T09:58:41;14.32;;;9.55;;
45490;SDS011;31237;45.586;13.782;2023-06-22T10:01:07;13.57;;;9.75;;
45490;SDS011;31237;45.586;13.782;2023-06-22T10:03:33;12.40;;;9.02;;
45490;SDS011;31237;45.586;13.782;2023-06-22T10:05:59;13.30;;;10.23;;
45490;SDS011;31237;45.586;13.782;2023-06-22T10:08:25;13.13;;;9.25;;
45490;SDS011;31237;45.586;13.782;2023-06-22T10:10:50;15.65;;;9.60;;
45490;SDS011;31237;45.586;13.782;2023-06-22T10:13:16;14.23;;;10.18;;
45490;SDS011;31237;45.586;13.782;2023-06-22T10:15:42;12.20;;;9.68;;
45490;SDS011;31237;45.586;13.782;2023-06-22T10:18:08;12.05;;;10.10;;
45490;SDS011;31237;45.586;13.782;2023-06-22T10:20:33;11.90;;;9.27;;
45490;SDS011;31237;45.586;13.782;2023-06-22T10:22:59;11.52;;;9.40;;
45490;SDS011;31237;45.586;13.782;2023-06-22T10:25:26;14.80;;;8.65;;
45490;SDS011;31237;45.586;13.782;2023-06-22T10:27:51;13.57;;;9.15;;
45490;SDS011;31237;45.586;13.782;2023-06-22T10:30:17;12.82;;;10.20;;
45490;SDS011;31237;45.586;13.782;2023-06-22T10:32:43;13.82;;;9.88;;
45490;SDS011;31237;45.586;13.782;2023-06-22T10:35:09;13.68;;;9.27;;
45490;SDS011;31237;45.586;13.782;2023-06-22T10:37:41;15.30;;;11.18;;
45490;SDS011;31237;45.586;13.782;2023-06-22T10:40:08;12.45;;;9.45;;
45490;SDS011;31237;45.586;13.782;2023-06-22T10:42:34;13.60;;;9.80;;
45490;SDS011;31237;45.586;13.782;2023-06-22T10:45:00;13.38;;;10.45;;
45490;SDS011;31237;45.586;13.782;2023-06-22T10:47:25;12.55;;;9.32;;
45490;SDS011;31237;45.586;13.782;2023-06-22T10:49:51;11.20;;;9.75;;
45490;SDS011;31237;45.586;13.782;2023-06-22T10:52:17;13.20;;;10.57;;
45490;SDS011;31237;45.586;13.782;2023-06-22T10:54:42;15.15;;;11.05;;
45490;SDS011;31237;45.586;13.782;2023-06-22T10:57:08;13.23;;;11.65;;
45490;SDS011;31237;45.586;13.782;2023-06-22T10:59:34;16.85;;;11.35;;
45490;SDS011;31237;45.586;13.782;2023-06-22T11:02:00;13.20;;;10.00;;
45490;SDS011;31237;45.586;13.782;2023-06-22T11:04:27;13.52;;;10.20;;
45490;SDS011;31237;45.586;13.782;2023-06-22T11:06:53;18.90;;;10.93;;
45490;SDS011;31237;45.586;13.782;2023-06-22T11:09:18;13.52;;;10.50;;
45490;SDS011;31237;45.586;13.782;2023-06-22T11:11:50;15.65;;;10.90;;
45490;SDS011;31237;45.586;13.782;2023-06-22T11:14:20;12.68;;;10.68;;
45490;SDS011;31237;45.586;13.782;2023-06-22T11:16:46;12.73;;;10.50;;
45490;SDS011;31237;45.586;13.782;2023-06-22T11:19:12;13.70;;;10.13;;
45490;SDS011;31237;45.586;13.782;2023-06-22T11:21:38;13.73;;;10.90;;
45490;SDS011;31237;45.586;13.782;2023-06-22T11:24:03;15.27;;;10.65;;
45490;SDS011;31237;45.586;13.782;2023-06-22T11:26:29;12.35;;;10.27;;
45490;SDS011;31237;45.586;13.782;2023-06-22T11:28:56;10.30;;;9.25;;
45490;SDS011;31237;45.586;13.782;2023-06-22T11:31:23;11.30;;;8.82;;
45490;SDS011;31237;45.586;13.782;2023-06-22T11:33:49;12.65;;;10.05;;
45490;SDS011;31237;45.586;13.782;2023-06-22T11:36:15;13.23;;;10.00;;
45490;SDS011;31237;45.586;13.782;2023-06-22T11:38:41;21.25;;;9.85;;
45490;SDS011;31237;45.586;13.782;2023-06-22T11:41:08;11.55;;;9.00;;
45490;SDS011;31237;45.586;13.782;2023-06-22T11:43:35;12.13;;;9.35;;
45490;SDS011;31237;45.586;13.782;2023-06-22T11:46:01;14.68;;;10.00;;
45490;SDS011;31237;45.586;13.782;2023-06-22T11:48:28;14.23;;;10.40;;
45490;SDS011;31237;45.586;13.782;2023-06-22T11:50:54;13.85;;;9.65;;
45490;SDS011;31237;45.586;13.782;2023-06-22T11:53:24;11.80;;;9.45;;
45490;SDS011;31237;45.586;13.782;2023-06-22T11:55:51;13.05;;;10.13;;
45490;SDS011;31237;45.586;13.782;2023-06-22T11:58:19;12.18;;;8.98;;
45490;SDS011;31237;45.586;13.782;2023-06-22T12:00:44;12.70;;;9.48;;
45490;SDS011;31237;45.586;13.782;2023-06-22T12:03:10;10.65;;;9.02;;
45490;SDS011;31237;45.586;13.782;2023-06-22T12:05:37;12.35;;;9.00;;
45490;SDS011;31237;45.586;13.782;2023-06-22T12:08:03;10.02;;;8.63;;
45490;SDS011;31237;45.586;13.782;2023-06-22T12:10:29;10.50;;;8.25;;
45490;SDS011;31237;45.586;13.782;2023-06-22T12:12:54;13.07;;;8.50;;
45490;SDS011;31237;45.586;13.782;2023-06-22T12:15:22;10.93;;;8.63;;
45490;SDS011;31237;45.586;13.782;2023-06-22T12:17:48;10.18;;;8.70;;
45490;SDS011;31237;45.586;13.782;2023-06-22T12:20:14;10.48;;;7.57;;
45490;SDS011;31237;45.586;13.782;2023-06-22T12:22:40;9.52;;;7.95;;
45490;SDS011;31237;45.586;13.782;2023-06-22T12:25:07;11.48;;;7.38;;
45490;SDS011;31237;45.586;13.782;2023-06-22T12:27:36;7.70;;;6.20;;
45490;SDS011;31237;45.586;13.782;2023-06-22T12:30:03;9.23;;;6.60;;
45490;SDS011;31237;45.586;13.782;2023-06-22T12:32:29;8.05;;;6.22;;
45490;SDS011;31237;45.586;13.782;2023-06-22T12:35:03;9.32;;;6.75;;
45490;SDS011;31237;45.586;13.782;2023-06-22T12:37:29;10.90;;;6.38;;
45490;SDS011;31237;45.586;13.782;2023-06-22T12:39:56;9.25;;;6.20;;
45490;SDS011;31237;45.586;13.782;2023-06-22T12:42:22;9.02;;;6.28;;
45490;SDS011;31237;45.586;13.782;2023-06-22T12:44:49;8.65;;;6.97;;
45490;SDS011;31237;45.586;13.782;2023-06-22T12:47:16;7.65;;;6.13;;
45490;SDS011;31237;45.586;13.782;2023-06-22T12:49:41;9.80;;;6.95;;
45490;SDS011;31237;45.586;13.782;2023-06-22T12:52:10;10.00;;;6.15;;
45490;SDS011;31237;45.586;13.782;2023-06-22T12:54:36;7.68;;;5.82;;
45490;SDS011;31237;45.586;13.782;2023-06-22T12:57:02;8.70;;;6.60;;
45490;SDS011;31237;45.586;13.782;2023-06-22T12:59:28;11.00;;;6.50;;
45490;SDS011;31237;45.586;13.782;2023-06-22T13:01:54;8.93;;;6.05;;
45490;SDS011;31237;45.586;13.782;2023-06-22T13:04:20;9.27;;;6.53;;
45490;SDS011;31237;45.586;13.782;2023-06-22T13:06:46;8.50;;;5.38;;
45490;SDS011;31237;45.586;13.782;2023-06-22T13:09:13;7.85;;;6.05;;
45490;SDS011;31237;45.586;13.782;2023-06-22T13:11:40;6.35;;;5.28;;
45490;SDS011;31237;45.586;13.782;2023-06-22T13:14:06;6.20;;;5.20;;
45490;SDS011;31237;45.586;13.782;2023-06-22T13:16:32;8.52;;;5.78;;
45490;SDS011;31237;45.586;13.782;2023-06-22T13:18:58;7.50;;;4.70;;
45490;SDS011;31237;45.586;13.782;2023-06-22T13:21:23;7.53;;;5.18;;
45490;SDS011;31237;45.586;13.782;2023-06-22T13:23:49;10.30;;;5.18;;
45490;SDS011;31237;45.586;13.782;2023-06-22T13:26:15;8.15;;;5.05;;
45490;SDS011;31237;45.586;13.782;2023-06-22T13:28:40;9.40;;;5.05;;
45490;SDS011;31237;45.586;13.782;2023-06-22T13:31:06;12.10;;;5.10;;
45490;SDS011;31237;45.586;13.782;2023-06-22T13:33:32;6.95;;;5.05;;
45490;SDS011;31237;45.586;13.782;2023-06-22T13:35:58;7.32;;;4.82;;
45490;SDS011;31237;45.586;13.782;2023-06-22T13:38:23;7.47;;;4.63;;
45490;SDS011;31237;45.586;13.782;2023-06-22T13:40:49;7.47;;;4.93;;
45490;SDS011;31237;45.586;13.782;2023-06-22T13:43:16;9.55;;;5.32;;
45490;SDS011;31237;45.586;13.782;2023-06-22T13:45:41;9.13;;;4.85;;
45490;SDS011;31237;45.586;13.782;2023-06-22T13:48:08;6.43;;;4.82;;
45490;SDS011;31237;45.586;13.782;2023-06-22T13:50:33;7.90;;;5.35;;
45490;SDS011;31237;45.586;13.782;2023-06-22T13:52:59;6.40;;;4.93;;
45490;SDS011;31237;45.586;13.782;2023-06-22T13:55:25;9.25;;;5.13;;
45490;SDS011;31237;45.586;13.782;2023-06-22T13:57:51;7.15;;;5.00;;
45490;SDS011;31237;45.586;13.782;2023-06-22T14:00:17;6.47;;;4.68;;
45490;SDS011;31237;45.586;13.782;2023-06-22T14:02:44;14.70;;;5.70;;
45490;SDS011;31237;45.586;13.782;2023-06-22T14:05:09;6.55;;;5.60;;
45490;SDS011;31237;45.586;13.782;2023-06-22T14:07:36;6.93;;;5.80;;
45490;SDS011;31237;45.586;13.782;2023-06-22T14:10:02;6.60;;;5.20;;
45490;SDS011;31237;45.586;13.782;2023-06-22T14:12:28;7.07;;;5.22;;
45490;SDS011;31237;45.586;13.782;2023-06-22T14:14:54;8.02;;;5.22;;
45490;SDS011;31237;45.586;13.782;2023-06-22T14:17:20;6.95;;;5.38;;
45490;SDS011;31237;45.586;13.782;2023-06-22T14:19:51;9.93;;;5.47;;
45490;SDS011;31237;45.586;13.782;2023-06-22T14:22:19;7.45;;;5.45;;
45490;SDS011;31237;45.586;13.782;2023-06-22T14:24:54;8.82;;;6.10;;
45490;SDS011;31237;45.586;13.782;2023-06-22T14:27:22;7.35;;;4.60;;
45490;SDS011;31237;45.586;13.782;2023-06-22T14:29:48;7.90;;;4.95;;